Time;durP1;ratioP1;P1;durP2;ratioP2;P2;SDS_P1;SDS_P2;PMS_P1;PMS_P2;Temp;Humidity;BMP_temperature;BMP_pressure;BME280_temperature;BME280_humidity;BME280_pressure;Samples;Min_cycle;Max_cycle;Signal;HPM_P1;HPM_P2
2024/04/01 00:01:33;;;;;;;12.40;11.20;;;9.80;99.90;;;;;;5021682;28;20510;-71
2024/04/01 00:04:00;;;;;;;13.20;11.23;;;9.70;99.90;;;;;;5023523;28;20527;-71
2024/04/01 00:06:27;;;;;;;12.00;10.80;;;9.70;99.90;;;;;;5019020;28;20985;-71
2024/04/01 00:08:53;;;;;;;13.70;12.23;;;9.70;99.90;;;;;;5024820;28;20455;-71
2024/04/01 00:11:21;;;;;;;11.93;10.73;;;9.70;99.90;;;;;;5024186;28;20475;-71
2024/04/01 00:13:48;;;;;;;12.33;11.17;;;9.60;99.90;;;;;;5022759;28;20506;-71
2024/04/01 00:16:15;;;;;;;13.20;11.80;;;9.60;99.90;;;;;;5024414;28;20867;-71
2024/04/01 00:18:42;;;;;;;12.60;11.30;;;9.60;99.90;;;;;;5024158;28;20520;-71
2024/04/01 00:21:09;;;;;;;12.43;11.13;;;9.60;99.90;;;;;;5023485;28;20484;-71
2024/04/01 00:23:36;;;;;;;12.87;11.57;;;9.60;99.90;;;;;;5019440;28;20502;-71
2024/04/01 00:26:03;;;;;;;12.77;11.57;;;9.60;99.90;;;;;;5016972;28;20979;-71
2024/04/01 00:28:29;;;;;;;12.50;11.03;;;9.50;99.90;;;;;;5024102;28;20468;-72
2024/04/01 00:30:56;;;;;;;12.67;11.37;;;9.50;99.90;;;;;;5023354;28;20483;-71
2024/04/01 00:33:22;;;;;;;13.00;10.97;;;9.50;99.90;;;;;;5022698;28;20494;-72
2024/04/01 00:35:51;;;;;;;12.00;10.73;;;9.50;99.90;;;;;;5023140;28;20475;-71
2024/04/01 00:38:17;;;;;;;12.87;11.67;;;9.50;99.90;;;;;;5022885;28;20881;-71
2024/04/01 00:40:44;;;;;;;12.90;11.60;;;9.50;99.90;;;;;;5024204;28;20541;-71
2024/04/01 00:43:10;;;;;;;13.40;12.10;;;9.50;99.90;;;;;;5019984;28;20553;-72
2024/04/01 00:45:40;;;;;;;12.90;11.60;;;9.40;99.90;;;;;;5023327;28;20478;-71
2024/04/01 00:48:07;;;;;;;12.37;11.07;;;9.40;99.90;;;;;;5024348;28;20628;-71
2024/04/01 00:50:36;;;;;;;13.33;12.03;;;9.40;99.90;;;;;;5021769;28;20487;-71
2024/04/01 00:53:06;;;;;;;13.63;11.73;;;9.40;99.90;;;;;;5023845;28;20546;-71
2024/04/01 00:55:34;;;;;;;13.53;12.17;;;9.40;99.90;;;;;;5024403;28;20472;-72
2024/04/01 00:58:01;;;;;;;13.73;12.33;;;9.40;99.90;;;;;;5022092;28;20514;-71
2024/04/01 01:00:29;;;;;;;13.77;12.23;;;9.40;99.90;;;;;;5021070;28;20518;-71
2024/04/01 01:02:56;;;;;;;12.60;11.40;;;9.40;99.90;;;;;;5023854;28;20483;-71
2024/04/01 01:05:24;;;;;;;12.43;11.03;;;9.40;99.90;;;;;;5022010;28;20467;-71
2024/04/01 01:07:50;;;;;;;12.77;11.47;;;9.30;99.90;;;;;;5024528;28;20830;-72
2024/04/01 01:10:19;;;;;;;13.47;12.07;;;9.30;99.90;;;;;;5018426;28;21010;-71
2024/04/01 01:12:45;;;;;;;13.03;11.77;;;9.30;99.90;;;;;;5025899;28;20977;-71
2024/04/01 01:15:12;;;;;;;13.67;11.37;;;9.30;99.90;;;;;;5023899;28;20459;-71
2024/04/01 01:17:40;;;;;;;12.57;11.20;;;9.30;99.90;;;;;;5023177;28;20475;-71
2024/04/01 01:20:11;;;;;;;12.80;11.50;;;9.20;99.90;;;;;;5022574;28;20491;-71
2024/04/01 01:22:39;;;;;;;12.40;11.00;;;9.20;99.90;;;;;;5020291;28;20499;-71
2024/04/01 01:25:07;;;;;;;14.33;12.67;;;9.20;99.90;;;;;;5023179;28;21001;-72
2024/04/01 01:27:34;;;;;;;13.77;12.40;;;9.20;99.90;;;;;;5023268;28;20483;-71
2024/04/01 01:30:03;;;;;;;14.30;12.80;;;9.20;99.90;;;;;;5022607;28;20479;-71
2024/04/01 01:32:29;;;;;;;14.90;13.40;;;9.20;99.90;;;;;;5024176;28;20475;-71
2024/04/01 01:34:56;;;;;;;13.83;12.53;;;9.20;99.90;;;;;;5021638;28;20960;-71
2024/04/01 01:37:23;;;;;;;14.00;12.50;;;9.20;99.90;;;;;;5025488;28;22498;-71
2024/04/01 01:39:52;;;;;;;15.70;14.10;;;9.20;99.90;;;;;;5026164;28;20479;-72
2024/04/01 01:42:18;;;;;;;15.53;14.00;;;9.10;99.90;;;;;;5022095;28;20468;-73
2024/04/01 01:44:45;;;;;;;15.87;14.17;;;9.10;99.90;;;;;;5028713;28;20498;-72
2024/04/01 01:47:11;;;;;;;16.23;14.47;;;9.10;99.90;;;;;;5026447;28;20471;-71
2024/04/01 01:49:38;;;;;;;17.37;15.50;;;9.10;99.90;;;;;;5024004;28;20471;-71
2024/04/01 01:52:04;;;;;;;17.30;15.50;;;9.10;99.90;;;;;;5024886;28;20463;-71
2024/04/01 01:54:31;;;;;;;16.50;14.80;;;9.10;99.90;;;;;;5026581;28;20552;-71
2024/04/01 01:56:58;;;;;;;18.60;16.70;;;9.10;99.90;;;;;;5024743;28;20856;-71
2024/04/01 01:59:25;;;;;;;18.73;14.93;;;9.10;99.90;;;;;;5026810;28;20506;-71
2024/04/01 02:01:51;;;;;;;16.50;14.80;;;9.10;99.90;;;;;;5028436;28;20475;-72
2024/04/01 02:04:18;;;;;;;17.13;15.27;;;9.10;99.90;;;;;;5040916;28;20487;-71
2024/04/01 02:06:45;;;;;;;15.37;13.77;;;9.10;99.90;;;;;;5026933;28;20529;-71
2024/04/01 02:09:12;;;;;;;19.20;16.27;;;9.10;99.90;;;;;;5026234;28;20467;-72
2024/04/01 02:11:38;;;;;;;17.23;15.40;;;9.10;99.90;;;;;;5018128;28;20502;-71
2024/04/01 02:14:06;;;;;;;20.17;16.33;;;9.10;99.90;;;;;;5019808;28;20480;-71
2024/04/01 02:16:33;;;;;;;18.50;15.73;;;9.00;99.90;;;;;;5018914;28;20629;-71
2024/04/01 02:19:00;;;;;;;17.20;15.30;;;9.00;99.90;;;;;;5025771;28;20957;-71
2024/04/01 02:21:26;;;;;;;18.20;16.30;;;9.00;99.90;;;;;;5024949;28;20486;-71
2024/04/01 02:23:53;;;;;;;18.90;16.90;;;9.00;99.90;;;;;;5024952;28;20514;-71
2024/04/01 02:26:20;;;;;;;20.33;16.87;;;9.00;99.90;;;;;;5026350;28;20851;-71
2024/04/01 02:28:47;;;;;;;20.90;15.50;;;9.00;99.90;;;;;;5026429;28;20979;-71
2024/04/01 02:31:14;;;;;;;18.27;16.00;;;9.00;99.90;;;;;;5024643;28;20487;-73
2024/04/01 02:33:41;;;;;;;18.07;16.17;;;8.90;99.90;;;;;;5023757;28;21060;-71
2024/04/01 02:36:08;;;;;;;18.10;15.87;;;9.00;99.90;;;;;;5025190;28;20468;-71
2024/04/01 02:38:35;;;;;;;19.90;15.77;;;8.90;99.90;;;;;;5024008;28;20476;-71
2024/04/01 02:41:01;;;;;;;18.07;15.80;;;9.00;99.90;;;;;;5023809;28;20879;-71
2024/04/01 02:43:28;;;;;;;17.23;15.20;;;9.00;99.90;;;;;;5026654;28;20494;-71
2024/04/01 02:45:54;;;;;;;19.13;16.63;;;9.00;99.90;;;;;;5024935;28;20830;-71
2024/04/01 02:48:22;;;;;;;19.33;16.97;;;9.00;99.90;;;;;;5024771;28;20484;-71
2024/04/01 02:50:49;;;;;;;18.90;16.93;;;9.00;99.90;;;;;;5019925;28;21149;-71
2024/04/01 02:53:16;;;;;;;18.97;16.73;;;9.00;99.90;;;;;;5025192;28;20496;-71
2024/04/01 02:55:42;;;;;;;18.10;15.27;;;9.00;99.90;;;;;;5027436;28;20960;-71
2024/04/01 02:58:09;;;;;;;20.67;17.87;;;8.90;99.90;;;;;;5022887;28;20476;-71
2024/04/01 03:00:35;;;;;;;20.97;17.20;;;8.90;99.90;;;;;;5024583;28;21062;-71
2024/04/01 03:03:03;;;;;;;19.33;16.17;;;8.90;99.90;;;;;;5025104;28;20854;-71
2024/04/01 03:05:36;;;;;;;19.90;16.80;;;8.90;99.90;;;;;;5026800;28;20895;-76
2024/04/01 03:08:04;;;;;;;20.67;16.20;;;8.90;99.90;;;;;;5022155;28;20474;-71
2024/04/01 03:10:30;;;;;;;20.20;16.90;;;8.90;99.90;;;;;;5024431;28;20479;-71
2024/04/01 03:12:57;;;;;;;19.73;16.60;;;8.80;99.90;;;;;;5022519;28;20487;-71
2024/04/01 03:15:23;;;;;;;23.83;18.37;;;8.80;99.90;;;;;;5024727;28;20475;-71
2024/04/01 03:17:50;;;;;;;19.77;16.80;;;8.70;99.90;;;;;;5026588;28;20475;-71
2024/04/01 03:20:18;;;;;;;19.17;16.90;;;8.80;99.90;;;;;;5022818;28;20550;-72
2024/04/01 03:22:46;;;;;;;19.27;17.27;;;8.80;99.90;;;;;;5024381;28;20495;-71
2024/04/01 03:25:13;;;;;;;20.07;16.63;;;8.80;99.90;;;;;;5025505;28;20472;-71
2024/04/01 03:27:40;;;;;;;20.17;17.30;;;8.80;99.90;;;;;;5026601;28;20475;-72
2024/04/01 03:30:09;;;;;;;20.17;17.77;;;8.80;99.90;;;;;;5023231;28;20491;-73
2024/04/01 03:32:36;;;;;;;20.10;17.30;;;8.80;99.90;;;;;;5022604;28;20469;-71
2024/04/01 03:35:03;;;;;;;21.33;16.87;;;8.70;99.90;;;;;;5018587;28;20464;-71
2024/04/01 03:37:31;;;;;;;24.40;18.57;;;8.70;99.90;;;;;;5025236;28;20510;-71
2024/04/01 03:39:58;;;;;;;21.13;18.50;;;8.70;99.90;;;;;;5022275;28;21000;-71
2024/04/01 03:42:25;;;;;;;19.93;17.57;;;8.70;99.90;;;;;;5023968;28;20537;-71
2024/04/01 03:44:53;;;;;;;19.47;17.20;;;8.70;99.90;;;;;;5019292;28;20487;-71
2024/04/01 03:47:19;;;;;;;22.57;17.77;;;8.70;99.90;;;;;;5024362;28;21257;-71
2024/04/01 03:49:47;;;;;;;20.67;17.10;;;8.70;99.90;;;;;;5024744;28;20494;-71
2024/04/01 03:52:13;;;;;;;21.87;17.60;;;8.60;99.90;;;;;;5024515;28;20479;-71
2024/04/01 03:54:40;;;;;;;21.73;17.67;;;8.60;99.90;;;;;;5024136;28;20494;-71
2024/04/01 03:57:08;;;;;;;23.70;19.10;;;8.60;99.90;;;;;;5022658;28;20610;-71
2024/04/01 03:59:35;;;;;;;23.43;18.77;;;8.60;99.90;;;;;;5025096;28;20478;-71
2024/04/01 04:02:06;;;;;;;22.07;18.10;;;8.60;99.90;;;;;;5021970;28;20532;-71
2024/04/01 04:04:33;;;;;;;20.63;17.47;;;8.60;99.90;;;;;;5025945;28;20553;-71
2024/04/01 04:07:00;;;;;;;22.30;18.43;;;8.60;99.90;;;;;;5024037;28;20472;-71
2024/04/01 04:09:27;;;;;;;21.83;17.80;;;8.60;99.90;;;;;;5023248;28;20471;-71
2024/04/01 04:11:54;;;;;;;22.37;18.47;;;8.50;99.90;;;;;;5022121;28;20980;-71
2024/04/01 04:14:24;;;;;;;23.33;18.27;;;8.50;99.90;;;;;;5024552;28;20487;-71
2024/04/01 04:16:51;;;;;;;20.90;17.97;;;8.50;99.90;;;;;;5025041;28;20471;-71
2024/04/01 04:19:19;;;;;;;20.17;18.00;;;8.50;99.90;;;;;;5024210;28;20865;-71
2024/04/01 04:21:45;;;;;;;20.67;18.47;;;8.50;99.90;;;;;;5024289;28;20486;-72
2024/04/01 04:24:14;;;;;;;21.60;18.00;;;8.50;99.90;;;;;;5021492;28;20502;-71
2024/04/01 04:26:40;;;;;;;23.57;18.10;;;8.50;99.90;;;;;;5024490;28;20475;-71
2024/04/01 04:29:07;;;;;;;21.63;19.03;;;8.50;99.90;;;;;;5023868;28;20495;-71
2024/04/01 04:31:35;;;;;;;21.03;18.03;;;8.40;99.90;;;;;;5021335;28;20483;-71
2024/04/01 04:34:03;;;;;;;23.10;17.93;;;8.40;99.90;;;;;;5022954;28;20487;-71
2024/04/01 04:36:29;;;;;;;22.03;18.10;;;8.40;99.90;;;;;;5025169;28;20498;-71
2024/04/01 04:38:56;;;;;;;22.70;19.50;;;8.40;99.90;;;;;;5023798;28;20480;-71
2024/04/01 04:41:22;;;;;;;20.70;18.53;;;8.40;99.90;;;;;;5020303;28;20510;-71
2024/04/01 04:43:49;;;;;;;21.63;19.33;;;8.40;99.90;;;;;;5023434;28;20495;-71
2024/04/01 04:46:15;;;;;;;20.80;18.33;;;8.30;99.90;;;;;;5023794;28;20463;-71
2024/04/01 04:48:45;;;;;;;20.00;17.90;;;8.30;99.90;;;;;;5020533;28;20478;-71
2024/04/01 04:51:11;;;;;;;22.00;17.70;;;8.30;99.90;;;;;;5022707;28;20483;-71
2024/04/01 04:53:39;;;;;;;22.90;19.10;;;8.30;99.90;;;;;;5023778;28;20491;-71
2024/04/01 04:56:05;;;;;;;24.77;19.67;;;8.30;99.90;;;;;;5021903;28;20486;-71
2024/04/01 04:58:32;;;;;;;19.67;17.57;;;8.30;99.90;;;;;;5017027;28;20472;-71
2024/04/01 05:01:05;;;;;;;22.00;18.53;;;8.20;99.90;;;;;;5016617;28;20486;-71
2024/04/01 05:03:32;;;;;;;23.43;17.70;;;8.20;99.90;;;;;;5014863;28;20510;-71
2024/04/01 05:06:01;;;;;;;22.30;17.73;;;8.20;99.90;;;;;;5023792;28;20467;-71
2024/04/01 05:08:28;;;;;;;22.27;19.33;;;8.20;99.90;;;;;;5024372;28;20957;-71
2024/04/01 05:10:55;;;;;;;21.00;17.80;;;8.20;99.90;;;;;;5013943;28;20859;-70
2024/04/01 05:13:22;;;;;;;24.00;20.73;;;8.20;99.90;;;;;;5029080;28;20495;-70
2024/04/01 05:15:48;;;;;;;24.67;20.73;;;8.20;99.90;;;;;;5027787;28;20537;-70
2024/04/01 05:18:15;;;;;;;23.37;19.90;;;8.20;99.90;;;;;;5025049;28;20467;-70
2024/04/01 05:20:41;;;;;;;24.53;20.10;;;8.10;99.90;;;;;;5025835;28;20495;-71
2024/04/01 05:23:10;;;;;;;25.33;20.80;;;8.20;99.90;;;;;;5043890;28;20495;-70
2024/04/01 05:25:36;;;;;;;23.07;19.80;;;8.20;99.90;;;;;;5027199;28;21032;-70
2024/04/01 05:28:03;;;;;;;21.93;19.63;;;8.20;99.90;;;;;;5024222;28;20886;-70
2024/04/01 05:30:29;;;;;;;24.10;21.37;;;8.20;99.90;;;;;;5026923;28;20825;-71
2024/04/01 05:32:56;;;;;;;24.10;20.43;;;8.20;99.90;;;;;;5026629;28;20913;-70
2024/04/01 05:35:22;;;;;;;26.57;20.60;;;8.20;99.90;;;;;;5026152;28;20463;-71
2024/04/01 05:37:49;;;;;;;23.60;20.70;;;8.20;99.90;;;;;;5025019;28;20474;-71
2024/04/01 05:40:16;;;;;;;24.50;21.57;;;8.20;99.90;;;;;;5026394;28;20541;-70
2024/04/01 05:42:43;;;;;;;25.93;21.13;;;8.20;99.90;;;;;;5027195;28;20475;-71
2024/04/01 05:45:09;;;;;;;23.53;21.20;;;8.20;99.90;;;;;;5024129;28;20490;-70
2024/04/01 05:47:37;;;;;;;26.13;20.70;;;8.20;99.90;;;;;;5026363;28;20472;-71
2024/04/01 05:50:03;;;;;;;24.10;21.23;;;8.20;99.90;;;;;;5024091;28;20467;-70
2024/04/01 05:52:32;;;;;;;24.63;22.00;;;8.20;99.90;;;;;;5026780;28;20460;-71
2024/04/01 05:54:58;;;;;;;23.63;21.20;;;8.20;99.90;;;;;;5019955;28;20466;-71
2024/04/01 05:57:26;;;;;;;25.10;21.90;;;8.30;99.90;;;;;;5025864;28;20987;-71
2024/04/01 05:59:55;;;;;;;26.03;21.80;;;8.30;99.90;;;;;;5027036;28;20487;-71
2024/04/01 06:02:22;;;;;;;23.47;20.97;;;8.30;99.90;;;;;;5024260;28;20471;-70
2024/04/01 06:04:49;;;;;;;27.17;22.30;;;8.30;99.90;;;;;;5023247;28;20507;-72
2024/04/01 06:07:16;;;;;;;23.93;21.17;;;8.30;99.90;;;;;;5026355;28;20843;-73
2024/04/01 06:09:42;;;;;;;24.67;22.00;;;8.30;99.90;;;;;;5025962;28;20467;-72
2024/04/01 06:12:09;;;;;;;24.23;21.63;;;8.30;99.90;;;;;;5023019;28;20467;-72
2024/04/01 06:14:36;;;;;;;26.00;22.27;;;8.30;99.90;;;;;;5027841;28;21050;-74
2024/04/01 06:17:04;;;;;;;24.00;20.50;;;8.30;99.90;;;;;;5019537;28;20471;-73
2024/04/01 06:19:30;;;;;;;29.20;22.90;;;8.30;99.90;;;;;;5026044;28;20541;-72
2024/04/01 06:21:57;;;;;;;26.77;22.80;;;8.30;99.90;;;;;;5023640;28;20469;-73
2024/04/01 06:24:23;;;;;;;25.40;22.70;;;8.30;99.90;;;;;;5026571;28;20486;-73
2024/04/01 06:26:50;;;;;;;25.73;22.57;;;8.30;99.90;;;;;;5028908;28;20503;-73
2024/04/01 06:29:17;;;;;;;30.10;22.20;;;8.30;99.90;;;;;;5023723;28;20479;-72
2024/04/01 06:31:45;;;;;;;23.70;21.17;;;8.40;99.90;;;;;;5026452;28;20557;-74
2024/04/01 06:34:12;;;;;;;24.30;21.60;;;8.40;99.90;;;;;;5024661;28;20503;-74
2024/04/01 06:36:38;;;;;;;28.10;22.63;;;8.40;99.90;;;;;;5020648;28;20471;-73
2024/04/01 06:39:06;;;;;;;28.23;22.50;;;8.40;99.90;;;;;;5023903;28;20472;-72
2024/04/01 06:41:32;;;;;;;26.90;22.73;;;8.40;99.90;;;;;;5025602;28;20790;-73
2024/04/01 06:43:59;;;;;;;26.27;23.47;;;8.40;99.90;;;;;;5024138;28;20867;-72
2024/04/01 06:46:25;;;;;;;26.03;23.13;;;8.50;99.90;;;;;;5025703;28;20474;-73
2024/04/01 06:48:53;;;;;;;24.93;22.27;;;8.50;99.90;;;;;;5026690;28;20474;-73
2024/04/01 06:51:19;;;;;;;24.37;20.60;;;8.40;99.90;;;;;;5023384;28;21088;-72
2024/04/01 06:53:46;;;;;;;25.93;23.17;;;8.50;99.90;;;;;;5025399;28;20859;-73
2024/04/01 06:56:13;;;;;;;25.73;23.03;;;8.50;99.90;;;;;;5023863;28;20486;-73
2024/04/01 06:58:40;;;;;;;29.23;22.53;;;8.50;99.90;;;;;;5026043;28;20479;-73
2024/04/01 07:01:06;;;;;;;25.17;22.47;;;8.50;99.90;;;;;;5015846;28;20488;-73
2024/04/01 07:03:33;;;;;;;27.30;24.37;;;8.50;99.90;;;;;;5025276;28;20491;-72
2024/04/01 07:06:01;;;;;;;24.30;21.70;;;8.50;99.90;;;;;;5023152;28;20890;-73
2024/04/01 07:08:28;;;;;;;25.53;22.83;;;8.50;99.90;;;;;;5024684;28;20482;-72
2024/04/01 07:10:54;;;;;;;27.30;23.20;;;8.50;99.90;;;;;;5022301;28;20490;-72
2024/04/01 07:13:21;;;;;;;26.93;23.97;;;8.60;99.90;;;;;;5023204;28;20506;-72
2024/04/01 07:15:47;;;;;;;25.03;22.37;;;8.60;99.90;;;;;;5019748;28;20467;-73
2024/04/01 07:18:14;;;;;;;26.53;23.70;;;8.60;99.90;;;;;;5024053;28;20538;-71
2024/04/01 07:20:41;;;;;;;27.77;23.77;;;8.60;99.90;;;;;;5022830;28;20529;-71
2024/04/01 07:23:09;;;;;;;25.13;22.47;;;8.60;99.90;;;;;;5025289;28;20491;-71
2024/04/01 07:25:36;;;;;;;25.47;22.20;;;8.60;99.90;;;;;;5025318;28;20488;-72
2024/04/01 07:28:03;;;;;;;27.83;24.10;;;8.70;99.90;;;;;;5023477;28;20478;-71
2024/04/01 07:30:29;;;;;;;27.67;24.00;;;8.60;99.90;;;;;;5022546;28;20483;-71
2024/04/01 07:32:56;;;;;;;32.30;24.27;;;8.60;99.90;;;;;;5026250;28;20479;-71
2024/04/01 07:35:22;;;;;;;26.67;23.73;;;8.70;99.90;;;;;;5015996;28;20472;-72
2024/04/01 07:37:49;;;;;;;27.70;23.33;;;8.70;99.90;;;;;;5024292;28;20499;-71
2024/04/01 07:40:16;;;;;;;27.00;24.07;;;8.70;99.90;;;;;;5024409;28;20480;-72
2024/04/01 07:42:45;;;;;;;26.97;24.07;;;8.70;99.90;;;;;;5024673;28;20464;-71
2024/04/01 07:45:12;;;;;;;29.20;23.43;;;8.70;99.90;;;;;;5016742;28;20498;-72
2024/04/01 07:47:40;;;;;;;27.63;23.53;;;8.70;99.90;;;;;;5024182;28;20475;-71
2024/04/01 07:50:06;;;;;;;27.17;24.37;;;8.70;99.90;;;;;;5010816;28;20901;-71
2024/04/01 07:52:35;;;;;;;28.17;25.10;;;8.80;99.90;;;;;;5021304;28;20482;-71
2024/04/01 07:55:01;;;;;;;29.13;24.27;;;8.80;99.90;;;;;;5023477;28;20983;-71
2024/04/01 07:57:31;;;;;;;26.17;23.40;;;8.80;99.90;;;;;;5017580;28;20475;-71
2024/04/01 07:59:57;;;;;;;28.40;25.40;;;8.80;99.90;;;;;;5020223;28;20462;-71
2024/04/01 08:02:25;;;;;;;28.53;25.00;;;8.80;99.90;;;;;;5022860;28;20478;-72
2024/04/01 08:04:51;;;;;;;29.87;26.30;;;8.80;99.90;;;;;;5022583;28;20498;-72
2024/04/01 08:07:19;;;;;;;27.50;24.60;;;8.90;99.90;;;;;;5022781;28;20470;-71
2024/04/01 08:09:45;;;;;;;27.73;24.73;;;8.90;99.90;;;;;;5024680;28;20471;-71
2024/04/01 08:12:12;;;;;;;29.20;25.50;;;8.90;99.90;;;;;;5023329;28;20965;-71
2024/04/01 08:14:40;;;;;;;28.93;24.50;;;8.90;99.90;;;;;;5023420;28;20487;-74
2024/04/01 08:17:07;;;;;;;27.10;24.20;;;8.90;99.90;;;;;;5014701;28;20475;-71
2024/04/01 08:19:33;;;;;;;29.37;25.90;;;9.00;99.90;;;;;;5014457;28;20476;-71
2024/04/01 08:22:00;;;;;;;27.60;24.60;;;9.00;99.90;;;;;;5022302;28;20878;-71
2024/04/01 08:24:26;;;;;;;29.33;25.10;;;9.00;99.90;;;;;;5024679;28;21015;-72
2024/04/01 08:26:53;;;;;;;26.73;23.93;;;9.10;99.90;;;;;;5024552;28;20474;-72
2024/04/01 08:29:19;;;;;;;28.83;25.77;;;9.10;99.90;;;;;;5022544;28;20530;-72
2024/04/01 08:31:48;;;;;;;30.17;27.03;;;9.10;99.90;;;;;;5022665;28;20801;-71
2024/04/01 08:34:14;;;;;;;29.10;25.40;;;9.10;99.90;;;;;;5023031;28;20480;-71
2024/04/01 08:36:41;;;;;;;31.30;26.70;;;9.10;99.90;;;;;;5024356;28;20467;-71
2024/04/01 08:39:08;;;;;;;30.20;25.83;;;9.10;99.90;;;;;;5020622;28;20475;-71
2024/04/01 08:41:40;;;;;;;29.73;25.57;;;9.10;99.90;;;;;;5017059;28;20479;-71
2024/04/01 08:44:11;;;;;;;31.77;28.40;;;9.20;99.90;;;;;;5019627;28;20504;-72
2024/04/01 08:46:41;;;;;;;30.10;26.90;;;9.20;99.90;;;;;;5015011;28;20853;-72
2024/04/01 08:49:10;;;;;;;28.80;25.70;;;9.30;99.90;;;;;;5022852;28;20483;-71
2024/04/01 08:51:38;;;;;;;30.67;27.30;;;9.30;99.90;;;;;;5023353;28;20491;-71
2024/04/01 08:54:07;;;;;;;29.93;26.83;;;9.30;99.90;;;;;;5021304;28;20488;-71
2024/04/01 08:56:39;;;;;;;29.70;26.50;;;9.30;99.90;;;;;;5023558;28;20852;-72
2024/04/01 08:59:05;;;;;;;30.87;27.17;;;9.30;99.90;;;;;;5022641;28;20471;-71
2024/04/01 09:01:32;;;;;;;34.77;28.07;;;9.30;99.90;;;;;;5021646;28;21378;-71
2024/04/01 09:03:58;;;;;;;30.77;27.13;;;9.40;99.90;;;;;;5023803;28;20487;-72
2024/04/01 09:06:28;;;;;;;30.57;27.37;;;9.40;99.90;;;;;;5025842;28;20468;-71
2024/04/01 09:08:55;;;;;;;34.70;29.10;;;9.40;99.90;;;;;;5024235;28;20472;-71
2024/04/01 09:11:23;;;;;;;31.43;27.53;;;9.40;99.90;;;;;;5021379;28;20491;-71
2024/04/01 09:13:50;;;;;;;32.07;28.60;;;9.40;99.90;;;;;;5022851;28;20503;-71
2024/04/01 09:16:21;;;;;;;34.33;28.73;;;9.40;99.90;;;;;;5022915;28;20472;-71
2024/04/01 09:18:49;;;;;;;32.27;28.50;;;9.40;99.90;;;;;;5022223;28;20856;-71
2024/04/01 09:21:18;;;;;;;32.13;28.00;;;9.40;99.90;;;;;;5028748;28;20495;-71
2024/04/01 09:23:46;;;;;;;33.50;28.20;;;9.40;99.90;;;;;;5025120;28;20902;-71
2024/04/01 09:26:14;;;;;;;31.80;27.93;;;9.40;99.90;;;;;;5025791;28;20491;-71
2024/04/01 09:28:40;;;;;;;30.80;27.50;;;9.50;99.90;;;;;;5023486;28;20529;-71
2024/04/01 09:31:09;;;;;;;32.87;28.43;;;9.50;99.90;;;;;;5022149;28;21031;-72
2024/04/01 09:33:35;;;;;;;31.77;28.27;;;9.50;99.90;;;;;;5023102;28;20542;-71
2024/04/01 09:36:03;;;;;;;33.07;28.80;;;9.50;99.90;;;;;;5021697;28;20468;-72
2024/04/01 09:38:33;;;;;;;36.00;27.70;;;9.60;99.90;;;;;;5018659;28;20476;-72
2024/04/01 09:41:02;;;;;;;31.90;27.57;;;9.60;99.90;;;;;;5022693;28;20471;-71
2024/04/01 09:43:30;;;;;;;31.80;28.40;;;9.60;99.90;;;;;;5022954;28;20487;-72
2024/04/01 09:45:58;;;;;;;32.77;29.27;;;9.60;99.90;;;;;;5020956;28;20917;-71
2024/04/01 09:48:26;;;;;;;39.67;29.90;;;9.70;99.90;;;;;;5021549;28;20467;-72
2024/04/01 09:50:54;;;;;;;33.60;29.23;;;9.70;99.90;;;;;;5022071;28;21067;-71
2024/04/01 09:53:21;;;;;;;32.07;28.57;;;9.70;99.90;;;;;;5022940;28;20484;-71
2024/04/01 09:56:19;;;;;;;33.47;28.87;;;9.80;99.90;;;;;;5020822;28;20476;-71
2024/04/01 09:59:15;;;;;;;31.17;27.80;;;9.80;99.90;;;;;;5020193;28;20478;-73
2024/04/01 10:01:55;;;;;;;29.87;26.77;;;9.90;99.90;;;;;;5022851;28;20513;-71
2024/04/01 10:04:58;;;;;;;32.50;29.03;;;9.90;99.90;;;;;;5024834;28;20918;-71
2024/04/01 10:08:12;;;;;;;32.47;28.60;;;10.00;99.90;;;;;;5025308;28;20467;-71
2024/04/01 10:11:16;;;;;;;29.70;26.40;;;10.00;99.90;;;;;;5025806;28;21010;-71
2024/04/01 10:14:20;;;;;;;31.30;27.70;;;10.00;99.90;;;;;;4988089;28;20525;-71
2024/04/01 10:17:13;;;;;;;30.43;27.13;;;10.00;99.90;;;;;;5026550;28;20862;-71
2024/04/01 10:20:02;;;;;;;35.87;27.30;;;10.00;99.90;;;;;;5024307;28;20537;-71
2024/04/01 10:22:55;;;;;;;32.60;27.77;;;10.10;99.90;;;;;;5026631;28;20487;-71
2024/04/01 10:25:57;;;;;;;30.70;27.37;;;10.10;99.90;;;;;;5025998;28;20484;-71
2024/04/01 10:29:02;;;;;;;30.00;26.77;;;10.10;99.90;;;;;;5024731;28;20467;-71
2024/04/01 10:31:57;;;;;;;30.13;26.87;;;10.20;99.90;;;;;;5024995;28;20487;-71
2024/04/01 10:34:50;;;;;;;33.13;27.57;;;10.20;99.90;;;;;;5024213;28;20541;-71
2024/04/01 10:37:45;;;;;;;29.47;26.00;;;10.20;99.90;;;;;;5024754;28;20471;-71
2024/04/01 10:40:32;;;;;;;31.07;26.70;;;10.30;99.90;;;;;;5025322;28;20746;-71
2024/04/01 10:43:33;;;;;;;35.30;26.60;;;10.40;99.90;;;;;;5022183;28;20502;-71
2024/04/01 10:46:26;;;;;;;28.73;24.63;;;10.40;99.90;;;;;;5024753;28;20486;-71
2024/04/01 10:49:15;;;;;;;28.60;25.50;;;10.40;99.90;;;;;;5025943;28;20960;-71
2024/04/01 10:52:17;;;;;;;29.93;25.87;;;10.40;99.90;;;;;;5023160;28;20487;-72
2024/04/01 10:54:58;;;;;;;28.07;25.00;;;10.50;99.90;;;;;;5024889;28;20521;-71
2024/04/01 10:57:55;;;;;;;29.03;25.00;;;10.50;99.90;;;;;;5024539;28;20468;-73
2024/04/01 11:00:52;;;;;;;29.07;26.10;;;10.60;99.90;;;;;;5024291;28;21000;-71
2024/04/01 11:03:52;;;;;;;27.80;25.03;;;10.60;99.90;;;;;;5023042;28;21095;-71
2024/04/01 11:06:58;;;;;;;27.30;24.50;;;10.60;99.90;;;;;;4994421;28;21518;-71
2024/04/01 11:09:43;;;;;;;27.43;24.63;;;10.60;99.90;;;;;;4968228;28;20465;-71
2024/04/01 11:12:20;;;;;;;27.27;24.37;;;10.70;99.90;;;;;;5018334;28;20483;-71
2024/04/01 11:14:50;;;;;;;26.20;22.70;;;10.70;99.90;;;;;;5024873;28;20490;-71
2024/04/01 11:17:18;;;;;;;25.60;22.80;;;10.70;99.90;;;;;;5025805;28;20467;-71
2024/04/01 11:20:15;;;;;;;25.73;23.10;;;10.70;99.90;;;;;;5025167;28;21172;-71
2024/04/01 11:23:00;;;;;;;24.60;22.00;;;10.70;99.90;;;;;;5022617;28;20467;-74
2024/04/01 11:25:40;;;;;;;23.43;21.03;;;10.80;99.90;;;;;;5025593;28;20907;-71
2024/04/01 11:28:24;;;;;;;25.23;22.67;;;10.70;99.90;;;;;;5017067;28;20924;-72
2024/04/01 11:30:59;;;;;;;25.47;22.70;;;10.80;99.90;;;;;;5024186;28;20487;-71
2024/04/01 11:33:33;;;;;;;24.10;20.90;;;10.80;99.90;;;;;;5025349;28;20490;-71
2024/04/01 11:36:00;;;;;;;24.57;20.63;;;10.90;99.90;;;;;;5022159;28;20518;-71
2024/04/01 11:38:40;;;;;;;23.57;21.07;;;10.90;99.90;;;;;;5023134;28;20991;-72
2024/04/01 11:41:10;;;;;;;23.60;21.10;;;10.80;99.90;;;;;;5023360;28;20507;-72
2024/04/01 11:43:39;;;;;;;23.30;20.97;;;10.90;99.90;;;;;;5024858;28;20487;-71
2024/04/01 11:46:07;;;;;;;22.20;19.90;;;10.90;99.90;;;;;;5024174;28;20514;-71
2024/04/01 11:48:35;;;;;;;23.10;20.80;;;10.90;99.90;;;;;;5024957;28;20840;-71
2024/04/01 11:51:02;;;;;;;23.13;20.67;;;11.00;99.90;;;;;;5023741;28;20471;-71
2024/04/01 11:53:40;;;;;;;23.53;20.47;;;11.00;99.90;;;;;;5024060;28;20510;-71
2024/04/01 11:56:06;;;;;;;23.20;20.70;;;11.00;99.90;;;;;;5020844;28;21015;-71
2024/04/01 11:58:33;;;;;;;23.80;21.50;;;11.10;99.90;;;;;;5024831;28;20530;-72
2024/04/01 12:01:01;;;;;;;23.40;20.60;;;11.10;99.90;;;;;;5023029;28;20830;-71
2024/04/01 12:03:39;;;;;;;22.57;19.93;;;11.10;99.90;;;;;;5022003;28;20491;-71
2024/04/01 12:06:07;;;;;;;21.80;19.50;;;11.10;99.90;;;;;;5024584;28;20554;-72
2024/04/01 12:08:36;;;;;;;23.03;20.67;;;11.10;99.90;;;;;;5025063;28;20463;-71
2024/04/01 12:11:05;;;;;;;22.53;20.23;;;11.20;99.90;;;;;;5020701;28;20537;-71
2024/04/01 12:13:33;;;;;;;22.23;19.87;;;11.20;99.90;;;;;;5021968;28;20491;-73
2024/04/01 12:15:59;;;;;;;21.93;19.63;;;11.20;99.90;;;;;;5025032;28;20463;-71
2024/04/01 12:18:27;;;;;;;22.07;19.77;;;11.20;99.90;;;;;;5023269;28;20991;-71
2024/04/01 12:20:54;;;;;;;23.90;20.10;;;11.20;99.90;;;;;;5021246;28;20836;-72
2024/04/01 12:23:22;;;;;;;23.03;20.63;;;11.20;99.90;;;;;;5022598;28;20488;-71
2024/04/01 12:25:49;;;;;;;20.77;18.67;;;11.20;99.90;;;;;;5024929;28;20525;-71
2024/04/01 12:28:18;;;;;;;22.30;20.20;;;11.20;99.90;;;;;;5023226;28;20476;-72
2024/04/01 12:30:51;;;;;;;20.17;18.17;;;11.20;99.90;;;;;;5021788;28;20487;-71
2024/04/01 12:33:20;;;;;;;22.23;19.93;;;11.20;99.90;;;;;;5022011;28;20707;-71
2024/04/01 12:35:49;;;;;;;23.17;20.70;;;11.20;99.90;;;;;;5022654;28;20525;-71
2024/04/01 12:38:23;;;;;;;23.30;20.07;;;11.20;99.90;;;;;;5000221;28;20482;-72
2024/04/01 12:40:51;;;;;;;22.07;19.87;;;11.20;99.90;;;;;;5008187;28;21055;-72
2024/04/01 12:43:21;;;;;;;22.20;19.97;;;11.30;99.90;;;;;;5019127;28;20517;-71
2024/04/01 12:45:51;;;;;;;23.10;20.70;;;11.30;99.90;;;;;;5017835;28;20886;-71
2024/04/01 12:48:20;;;;;;;22.97;20.50;;;11.30;99.90;;;;;;5018873;28;20471;-72
2024/04/01 12:50:47;;;;;;;21.87;19.60;;;11.30;99.90;;;;;;5017489;28;20471;-73